createdAt,value
2018-01-30T00:01:41.879Z,87.80
2018-01-30T00:04:09.402Z,88.20
2018-01-30T00:06:37.000Z,88.40
2018-01-30T00:09:05.332Z,88.20
2018-01-30T00:11:32.870Z,88.20
2018-01-30T00:14:01.216Z,88.30
2018-01-30T00:16:28.782Z,87.70
2018-01-30T00:18:56.319Z,88.60
2018-01-30T00:21:23.896Z,89.80
2018-01-30T00:23:51.520Z,89.50
2018-01-30T00:26:19.085Z,89.80
2018-01-30T00:28:46.727Z,89.70
2018-01-30T00:31:14.267Z,89.80
2018-01-30T00:33:42.020Z,90.20
2018-01-30T00:36:09.861Z,90.50
2018-01-30T00:38:37.432Z,90.40
2018-01-30T00:41:04.996Z,90.60
2018-01-30T00:43:32.580Z,90.40
2018-01-30T00:46:00.141Z,90.40
2018-01-30T00:48:27.687Z,90.30
2018-01-30T00:50:55.271Z,90.20
2018-01-30T00:53:23.604Z,90.50
2018-01-30T00:55:51.144Z,90.50
2018-01-30T00:58:18.739Z,90.60
2018-01-30T01:00:46.312Z,90.60
2018-01-30T01:03:13.881Z,90.80
2018-01-30T01:05:41.615Z,90.60
2018-01-30T01:08:09.147Z,90.70
2018-01-30T01:10:36.713Z,90.60
2018-01-30T01:13:04.267Z,90.70
2018-01-30T01:15:31.794Z,90.70
2018-01-30T01:17:59.360Z,90.90
2018-01-30T01:20:26.916Z,91.10
2018-01-30T01:22:54.484Z,91.00
2018-01-30T01:25:22.013Z,91.40
2018-01-30T01:27:49.600Z,91.10
2018-01-30T01:30:17.940Z,91.20
2018-01-30T01:32:45.478Z,91.20
2018-01-30T01:35:13.224Z,91.10
2018-01-30T01:37:40.788Z,91.10
2018-01-30T01:40:08.353Z,91.60
2018-01-30T01:42:36.816Z,91.30
2018-01-30T01:45:05.113Z,91.30
2018-01-30T01:47:32.685Z,91.30
2018-01-30T01:50:00.421Z,90.90
2018-01-30T01:52:27.993Z,90.90
2018-01-30T01:54:56.328Z,90.80
2018-01-30T01:57:24.009Z,90.80
2018-01-30T01:59:51.539Z,90.20
2018-01-30T02:02:19.104Z,90.00
2018-01-30T02:04:46.651Z,90.00
2018-01-30T02:07:14.183Z,89.70
2018-01-30T02:09:41.756Z,90.00
2018-01-30T02:12:09.480Z,89.70
2018-01-30T02:14:37.044Z,90.00
2018-01-30T02:17:04.608Z,89.20
2018-01-30T02:19:32.968Z,89.20
2018-01-30T02:22:01.263Z,90.00
2018-01-30T02:24:28.791Z,90.00
2018-01-30T02:26:56.525Z,89.80
2018-01-30T02:29:24.084Z,89.40
2018-01-30T02:31:51.649Z,89.30
2018-01-30T02:34:19.424Z,88.80
2018-01-30T02:36:47.723Z,88.80
2018-01-30T02:39:15.256Z,88.80
2018-01-30T02:41:42.802Z,88.90
2018-01-30T02:44:10.329Z,88.30
2018-01-30T02:46:37.897Z,88.10
2018-01-30T02:49:05.452Z,87.70
2018-01-30T02:51:33.016Z,88.20
2018-01-30T02:54:01.348Z,88.90
2018-01-30T02:56:29.087Z,88.90
2018-01-30T02:58:56.615Z,88.40
2018-01-30T03:01:24.143Z,88.40
2018-01-30T03:03:52.681Z,88.20
2018-01-30T03:06:20.208Z,88.20
2018-01-30T03:08:48.149Z,88.80
2018-01-30T03:11:15.899Z,89.20
2018-01-30T03:13:43.427Z,89.20
2018-01-30T03:16:10.997Z,89.10
2018-01-30T03:18:38.609Z,88.70
2018-01-30T03:21:06.360Z,88.80
2018-01-30T03:23:33.897Z,89.20
2018-01-30T03:26:01.543Z,89.00
2018-01-30T03:28:29.122Z,89.30
2018-01-30T03:30:56.655Z,89.60
2018-01-30T03:33:24.464Z,88.90
2018-01-30T03:35:52.217Z,89.20
2018-01-30T03:38:19.752Z,89.00
2018-01-30T03:40:47.359Z,89.00
2018-01-30T03:43:14.829Z,88.60
2018-01-30T03:45:42.400Z,88.40
2018-01-30T03:48:09.996Z,89.60
2018-01-30T03:50:37.556Z,88.50
2018-01-30T03:53:05.126Z,88.30
2018-01-30T03:55:33.061Z,88.70
2018-01-30T03:58:01.370Z,88.80
2018-01-30T04:00:28.940Z,88.70
2018-01-30T04:02:56.683Z,89.10
2018-01-30T04:05:24.248Z,89.20
2018-01-30T04:07:51.775Z,89.80
2018-01-30T04:10:19.423Z,89.40
2018-01-30T04:12:46.992Z,89.50
2018-01-30T04:15:15.322Z,90.10
2018-01-30T04:17:43.109Z,90.00
2018-01-30T04:20:11.415Z,90.10
2018-01-30T04:22:38.939Z,90.10
2018-01-30T04:25:06.539Z,90.30
2018-01-30T04:27:34.063Z,90.20
2018-01-30T04:30:01.533Z,90.50
2018-01-30T04:32:29.208Z,90.20
2018-01-30T04:34:57.504Z,90.60
2018-01-30T04:37:25.088Z,90.60
2018-01-30T04:39:52.737Z,90.60
2018-01-30T04:42:20.301Z,90.50
2018-01-30T04:44:48.633Z,90.50
2018-01-30T04:47:16.367Z,90.50
2018-01-30T04:49:43.895Z,90.40
2018-01-30T04:52:11.423Z,90.50
2018-01-30T04:54:38.988Z,90.60
2018-01-30T04:57:06.549Z,90.50
2018-01-30T04:59:34.116Z,90.70
2018-01-30T05:02:01.707Z,90.70
2018-01-30T05:04:29.272Z,90.70
2018-01-30T05:06:56.800Z,90.70
2018-01-30T05:09:24.408Z,90.60
2018-01-30T05:11:51.980Z,90.70
2018-01-30T05:14:19.545Z,90.70
2018-01-30T05:16:47.241Z,90.90
2018-01-30T05:19:14.801Z,90.70
2018-01-30T05:21:43.107Z,90.60
2018-01-30T05:24:10.648Z,90.60
2018-01-30T05:26:38.215Z,91.10
2018-01-30T05:29:05.718Z,91.40
2018-01-30T05:31:34.268Z,91.40
2018-01-30T05:34:02.604Z,90.80
2018-01-30T05:36:30.127Z,90.80
2018-01-30T05:38:57.958Z,90.70
2018-01-30T05:41:25.529Z,90.50
2018-01-30T05:43:53.091Z,90.50
2018-01-30T05:46:20.807Z,90.70
2018-01-30T05:48:48.332Z,90.30
2018-01-30T05:51:15.867Z,90.30
2018-01-30T05:53:43.420Z,90.50
2018-01-30T05:56:10.985Z,90.80
2018-01-30T05:58:38.521Z,90.60
2018-01-30T06:01:06.240Z,90.60
2018-01-30T06:03:33.770Z,90.50
2018-01-30T06:06:01.302Z,90.90
2018-01-30T06:08:28.902Z,90.70
2018-01-30T06:10:56.472Z,90.70
2018-01-30T06:13:23.957Z,91.00
2018-01-30T06:15:51.508Z,91.10
2018-01-30T06:18:19.051Z,91.00
2018-01-30T06:20:46.625Z,91.40
2018-01-30T06:23:16.311Z,91.40
2018-01-30T06:25:43.847Z,91.00
2018-01-30T06:28:11.413Z,91.30
2018-01-30T06:30:38.993Z,91.40
2018-01-30T06:33:06.524Z,91.80
2018-01-30T06:35:34.868Z,91.80
2018-01-30T06:38:02.528Z,91.80
2018-01-30T06:40:30.096Z,92.10
2018-01-30T06:42:57.624Z,92.90
2018-01-30T06:45:25.218Z,93.20
2018-01-30T06:47:53.509Z,93.80
2018-01-30T06:50:21.031Z,93.80
2018-01-30T06:52:48.630Z,94.30
2018-01-30T06:55:16.101Z,94.50
2018-01-30T06:57:44.396Z,95.00
2018-01-30T07:00:12.750Z,94.90
2018-01-30T07:02:41.081Z,94.80
2018-01-30T07:05:08.616Z,94.80
2018-01-30T07:07:36.174Z,95.20
2018-01-30T07:10:03.759Z,95.60
2018-01-30T07:12:31.407Z,95.20
2018-01-30T07:14:59.175Z,95.30
2018-01-30T07:17:26.735Z,95.20
2018-01-30T07:19:54.309Z,95.10
2018-01-30T07:22:22.885Z,95.30
2018-01-30T07:24:51.216Z,95.10
2018-01-30T07:27:18.775Z,95.10
2018-01-30T07:29:46.376Z,95.10
2018-01-30T07:32:13.949Z,94.80
2018-01-30T07:34:41.480Z,94.50
2018-01-30T07:37:08.976Z,94.30
2018-01-30T07:39:36.553Z,94.30
2018-01-30T07:42:04.054Z,94.20
2018-01-30T07:44:31.620Z,94.40
2018-01-30T07:46:59.154Z,94.60
2018-01-30T07:49:27.398Z,93.80
2018-01-30T07:51:54.981Z,93.80
2018-01-30T07:54:22.544Z,93.00
2018-01-30T07:56:50.080Z,93.30
2018-01-30T07:59:17.876Z,93.30
2018-01-30T08:01:45.440Z,93.30
2018-01-30T08:04:13.734Z,93.30
2018-01-30T08:06:41.622Z,93.30
2018-01-30T08:09:09.149Z,93.30
2018-01-30T08:11:36.717Z,93.30
2018-01-30T08:14:04.462Z,93.30
2018-01-30T08:16:32.001Z,92.70
2018-01-30T08:18:59.539Z,92.30
2018-01-30T08:21:27.132Z,92.00
2018-01-30T08:23:55.465Z,91.90
2018-01-30T08:26:22.998Z,91.90
2018-01-30T08:28:50.547Z,91.70
2018-01-30T08:31:18.083Z,92.00
2018-01-30T08:33:45.647Z,92.30
2018-01-30T08:36:13.232Z,91.90
2018-01-30T08:38:40.756Z,91.30
2018-01-30T08:41:09.093Z,91.10
2018-01-30T08:43:36.650Z,91.10
2018-01-30T08:46:04.980Z,91.30
2018-01-30T08:48:32.511Z,91.30
2018-01-30T08:51:00.188Z,91.00
2018-01-30T08:53:27.694Z,90.50
2018-01-30T08:55:55.206Z,90.80
2018-01-30T08:58:22.932Z,90.60
2018-01-30T09:00:50.443Z,90.10
2018-01-30T09:03:17.979Z,90.10
2018-01-30T09:05:46.323Z,90.30
2018-01-30T09:08:13.857Z,90.20
2018-01-30T09:10:42.188Z,90.10
2018-01-30T09:13:09.747Z,90.10
2018-01-30T09:15:40.276Z,90.60
2018-01-30T09:18:08.607Z,89.70
2018-01-30T09:20:36.192Z,89.80
2018-01-30T09:23:04.490Z,89.90
2018-01-30T09:25:32.017Z,89.90
2018-01-30T09:27:59.597Z,89.70
2018-01-30T09:30:27.124Z,89.10
2018-01-30T09:32:54.655Z,89.80
2018-01-30T09:35:22.253Z,88.80
2018-01-30T09:37:50.584Z,88.70
2018-01-30T09:40:18.119Z,88.60
2018-01-30T09:42:45.902Z,89.00
2018-01-30T09:45:13.370Z,88.70
2018-01-30T09:47:40.925Z,88.40
2018-01-30T09:50:08.512Z,88.30
2018-01-30T09:52:36.083Z,90.00
2018-01-30T09:55:03.557Z,90.20
2018-01-30T09:57:31.115Z,90.70
2018-01-30T09:59:59.453Z,89.50
2018-01-30T10:02:27.017Z,89.40
2018-01-30T10:04:55.460Z,86.50
2018-01-30T10:07:23.036Z,86.50
2018-01-30T10:09:51.369Z,88.40
2018-01-30T10:12:18.959Z,88.30
2018-01-30T10:14:46.421Z,88.40
2018-01-30T10:17:14.723Z,86.30
2018-01-30T10:19:42.485Z,86.30
2018-01-30T10:22:10.829Z,85.60
2018-01-30T10:24:38.397Z,85.50
2018-01-30T10:27:06.183Z,83.40
2018-01-30T10:29:33.747Z,84.80
2018-01-30T10:32:02.066Z,84.70
2018-01-30T10:34:29.870Z,84.80
2018-01-30T10:36:58.197Z,85.70
2018-01-30T10:39:25.760Z,85.70
2018-01-30T10:41:53.609Z,86.80
2018-01-30T10:44:21.176Z,87.50
2018-01-30T10:46:49.477Z,86.20
2018-01-30T10:49:17.392Z,86.20
2018-01-30T10:51:44.924Z,86.90
2018-01-30T10:54:12.463Z,86.50
2018-01-30T10:56:40.054Z,87.00
2018-01-30T10:59:08.352Z,84.80
2018-01-30T11:01:35.921Z,84.90
2018-01-30T11:04:03.504Z,85.00
2018-01-30T11:06:31.799Z,83.80
2018-01-30T11:08:59.329Z,83.60
2018-01-30T11:11:27.008Z,82.60
2018-01-30T11:13:54.580Z,82.30
2018-01-30T11:16:22.110Z,82.10
2018-01-30T11:18:49.731Z,80.30
2018-01-30T11:21:18.097Z,78.60
2018-01-30T11:23:45.607Z,79.00
2018-01-30T11:26:13.199Z,79.00
2018-01-30T11:28:41.594Z,78.80
2018-01-30T11:31:09.921Z,79.40
2018-01-30T11:33:38.946Z,79.20
2018-01-30T11:36:06.479Z,79.00
2018-01-30T11:38:34.011Z,80.50
2018-01-30T11:41:02.581Z,78.90
2018-01-30T11:43:30.148Z,78.80
2018-01-30T11:45:58.468Z,79.80
2018-01-30T11:48:26.063Z,79.70
2018-01-30T11:50:54.434Z,79.10
2018-01-30T11:53:22.034Z,79.10
2018-01-30T11:55:55.798Z,77.90
2018-01-30T11:58:24.144Z,77.10
2018-01-30T12:00:51.674Z,77.10
2018-01-30T12:03:19.524Z,76.80
2018-01-30T12:05:47.063Z,77.50
2018-01-30T12:08:14.591Z,78.30
2018-01-30T12:10:42.907Z,76.90
2018-01-30T12:13:10.476Z,76.90
2018-01-30T12:15:37.986Z,76.00
2018-01-30T12:18:06.348Z,77.00
2018-01-30T12:20:33.874Z,76.90
2018-01-30T12:23:02.186Z,78.50
2018-01-30T12:25:29.971Z,78.40
2018-01-30T12:27:58.304Z,78.80
2018-01-30T12:30:25.868Z,78.10
2018-01-30T12:32:54.195Z,77.50
2018-01-30T12:35:21.723Z,77.40
2018-01-30T12:37:49.301Z,75.70
2018-01-30T12:40:16.959Z,76.30
2018-01-30T12:42:45.269Z,73.80
2018-01-30T12:45:13.163Z,74.60
2018-01-30T12:47:41.787Z,74.60
2018-01-30T12:50:09.397Z,74.30
2018-01-30T12:52:37.696Z,74.70
2018-01-30T12:55:05.467Z,74.60
2018-01-30T12:57:33.003Z,75.50
2018-01-30T13:00:00.585Z,77.60
2018-01-30T13:02:28.435Z,77.10
2018-01-30T13:04:56.004Z,76.80
2018-01-30T13:07:23.543Z,77.10
2018-01-30T13:09:51.383Z,78.00
2018-01-30T13:12:18.923Z,77.60
2018-01-30T13:14:46.396Z,76.80
2018-01-30T13:17:14.235Z,77.60
2018-01-30T13:19:42.568Z,78.70
2018-01-30T13:22:10.100Z,78.60
2018-01-30T13:24:37.707Z,78.50
2018-01-30T13:27:05.240Z,78.00
2018-01-30T13:29:32.807Z,77.60
2018-01-30T13:32:00.397Z,77.70
2018-01-30T13:34:27.927Z,78.00
2018-01-30T13:36:55.470Z,77.00
2018-01-30T13:39:23.848Z,77.40
2018-01-30T13:41:52.184Z,77.50
2018-01-30T13:44:19.765Z,77.50
2018-01-30T13:46:48.088Z,77.80
2018-01-30T13:49:15.631Z,77.80
2018-01-30T13:51:43.158Z,77.10
2018-01-30T13:54:10.756Z,77.00
2018-01-30T13:56:39.052Z,78.50
2018-01-30T13:59:06.629Z,77.60
2018-01-30T14:01:34.191Z,78.60
2018-01-30T14:04:01.769Z,79.60
2018-01-30T14:06:29.341Z,79.50
2018-01-30T14:08:57.024Z,78.90
2018-01-30T14:11:25.326Z,79.70
2018-01-30T14:13:52.866Z,78.90
2018-01-30T14:16:20.453Z,80.70
2018-01-30T14:18:48.800Z,78.20
2018-01-30T14:21:17.104Z,76.80
2018-01-30T14:23:44.689Z,76.80
2018-01-30T14:26:12.263Z,77.90
2018-01-30T14:28:39.774Z,75.10
2018-01-30T14:31:07.356Z,76.50
2018-01-30T14:33:34.894Z,75.40
2018-01-30T14:36:02.475Z,77.00
2018-01-30T14:38:29.965Z,75.30
2018-01-30T14:40:57.524Z,75.70
2018-01-30T14:43:25.104Z,75.20
2018-01-30T14:45:52.879Z,76.70
2018-01-30T14:48:21.190Z,77.50
2018-01-30T14:50:48.729Z,77.50
2018-01-30T14:53:16.283Z,76.10
2018-01-30T14:55:43.821Z,78.10
2018-01-30T14:58:11.351Z,79.30
2018-01-30T15:00:38.901Z,78.80
2018-01-30T15:03:06.473Z,78.70
2018-01-30T15:05:34.044Z,81.10
2018-01-30T15:08:02.416Z,79.40
2018-01-30T15:10:30.718Z,79.00
2018-01-30T15:12:58.284Z,79.00
2018-01-30T15:15:26.032Z,78.20
2018-01-30T15:17:53.608Z,78.60
2018-01-30T15:20:21.917Z,78.20
2018-01-30T15:22:49.671Z,78.30
2018-01-30T15:25:17.959Z,78.50
2018-01-30T15:27:45.493Z,78.40
2018-01-30T15:30:13.419Z,79.70
2018-01-30T15:32:41.752Z,80.90
2018-01-30T15:35:09.221Z,80.90
2018-01-30T15:37:37.572Z,83.10
2018-01-30T15:40:05.892Z,82.70
2018-01-30T15:42:33.481Z,82.70
2018-01-30T15:45:01.934Z,82.50
2018-01-30T15:47:29.464Z,82.50
2018-01-30T15:49:57.028Z,81.80
2018-01-30T15:52:24.571Z,82.10
2018-01-30T15:54:52.136Z,81.20
2018-01-30T15:57:19.699Z,81.10
2018-01-30T15:59:47.246Z,81.80
2018-01-30T16:02:14.812Z,81.90
2018-01-30T16:04:43.139Z,82.50
2018-01-30T16:07:10.928Z,82.20
2018-01-30T16:09:39.232Z,82.30
2018-01-30T16:12:06.842Z,82.30
2018-01-30T16:14:35.401Z,83.20
2018-01-30T16:17:03.728Z,83.70
2018-01-30T16:19:31.292Z,83.70
2018-01-30T16:21:58.816Z,84.20
2018-01-30T16:24:26.379Z,84.30
2018-01-30T16:26:54.724Z,85.80
2018-01-30T16:29:22.292Z,85.00
2018-01-30T16:31:50.627Z,85.80
2018-01-30T16:34:18.192Z,85.80
2018-01-30T16:36:46.731Z,86.50
2018-01-30T16:39:14.293Z,86.30
2018-01-30T16:41:41.861Z,86.80
2018-01-30T16:44:10.185Z,87.30
2018-01-30T16:46:37.752Z,87.30
2018-01-30T16:49:06.059Z,89.80
2018-01-30T16:51:33.648Z,89.00
2018-01-30T16:54:01.957Z,88.10
2018-01-30T16:56:29.425Z,88.10
2018-01-30T16:58:57.188Z,88.30
2018-01-30T17:01:24.716Z,88.30
2018-01-30T17:03:52.340Z,88.60
2018-01-30T17:06:19.882Z,88.20
2018-01-30T17:08:47.501Z,89.50
2018-01-30T17:11:15.073Z,89.40
2018-01-30T17:13:42.838Z,90.00
2018-01-30T17:16:10.372Z,90.00
2018-01-30T17:18:37.936Z,90.60
2018-01-30T17:21:05.808Z,90.40
2018-01-30T17:23:34.144Z,90.70
2018-01-30T17:26:01.683Z,90.70
2018-01-30T17:28:29.565Z,90.90
2018-01-30T17:30:57.176Z,90.80
2018-01-30T17:33:24.707Z,90.80
2018-01-30T17:35:52.346Z,90.80
2018-01-30T17:38:19.912Z,91.10
2018-01-30T17:40:47.409Z,91.30
2018-01-30T17:43:14.955Z,91.50
2018-01-30T17:45:42.492Z,91.60
2018-01-30T17:48:10.089Z,91.70
2018-01-30T17:50:38.012Z,91.80
2018-01-30T17:53:05.490Z,92.00
2018-01-30T17:55:33.068Z,91.80
2018-01-30T17:58:00.693Z,91.60
2018-01-30T18:00:28.240Z,91.70
2018-01-30T18:02:55.824Z,92.00
2018-01-30T18:05:24.388Z,91.90
2018-01-30T18:07:52.725Z,91.90
2018-01-30T18:10:20.256Z,91.90
2018-01-30T18:12:47.819Z,91.80
2018-01-30T18:15:15.392Z,91.80
2018-01-30T18:17:42.960Z,91.90
2018-01-30T18:20:10.522Z,92.00
2018-01-30T18:22:38.091Z,91.90
2018-01-30T18:25:05.661Z,91.80
2018-01-30T18:27:33.986Z,91.90
2018-01-30T18:30:01.556Z,91.90
2018-01-30T18:32:29.148Z,91.70
2018-01-30T18:34:56.754Z,91.60
2018-01-30T18:37:24.299Z,92.10
2018-01-30T18:39:51.865Z,92.10
2018-01-30T18:42:19.849Z,92.10
2018-01-30T18:44:48.185Z,91.90
2018-01-30T18:47:15.756Z,91.90
2018-01-30T18:49:44.071Z,92.30
2018-01-30T18:52:11.649Z,92.70
2018-01-30T18:54:39.208Z,92.30
2018-01-30T18:57:06.808Z,92.10
2018-01-30T18:59:34.378Z,92.20
2018-01-30T19:02:02.039Z,92.20
2018-01-30T19:04:29.620Z,92.40
2018-01-30T19:06:57.931Z,92.50
2018-01-30T19:09:25.492Z,92.50
2018-01-30T19:11:53.188Z,92.50
2018-01-30T19:14:20.778Z,92.40
2018-01-30T19:16:48.349Z,92.30
2018-01-30T19:19:16.059Z,92.40
2018-01-30T19:21:43.578Z,92.50
2018-01-30T19:24:11.046Z,92.40
2018-01-30T19:26:38.583Z,92.50
2018-01-30T19:29:06.151Z,92.80
2018-01-30T19:31:33.719Z,93.30
2018-01-30T19:34:02.010Z,93.00
2018-01-30T19:36:29.536Z,93.00
2018-01-30T19:38:57.102Z,93.00
2018-01-30T19:41:24.668Z,93.20
2018-01-30T19:43:52.232Z,92.80
2018-01-30T19:46:19.800Z,92.80
2018-01-30T19:48:48.244Z,93.00
2018-01-30T19:51:15.788Z,93.00
2018-01-30T19:53:43.323Z,92.90
2018-01-30T19:56:10.889Z,92.90
2018-01-30T19:58:39.232Z,93.60
2018-01-30T20:01:06.771Z,93.50
2018-01-30T20:03:34.323Z,93.30
2018-01-30T20:06:01.914Z,93.30
2018-01-30T20:08:29.412Z,93.50
2018-01-30T20:10:57.767Z,93.50
2018-01-30T20:13:25.332Z,93.40
2018-01-30T20:15:54.516Z,93.60
2018-01-30T20:18:22.328Z,93.50
2018-01-30T20:20:49.873Z,93.40
2018-01-30T20:23:17.409Z,93.30
2018-01-30T20:25:45.136Z,93.50
2018-01-30T20:28:12.671Z,93.50
2018-01-30T20:30:40.235Z,93.50
2018-01-30T20:33:07.820Z,93.50
2018-01-30T20:35:35.384Z,93.80
2018-01-30T20:38:03.725Z,94.00
2018-01-30T20:40:31.272Z,94.00
2018-01-30T20:42:58.841Z,93.60
2018-01-30T20:45:27.146Z,93.90
2018-01-30T20:47:54.824Z,93.90
2018-01-30T20:50:22.361Z,94.00
2018-01-30T20:52:49.896Z,94.10
2018-01-30T20:55:18.348Z,93.90
2018-01-30T20:57:46.638Z,93.80
2018-01-30T21:00:14.182Z,93.80
2018-01-30T21:02:41.788Z,93.80
2018-01-30T21:05:10.173Z,93.80
2018-01-30T21:07:38.512Z,93.80
2018-01-30T21:10:06.294Z,93.80
2018-01-30T21:12:33.860Z,93.90
2018-01-30T21:15:01.440Z,94.10
2018-01-30T21:17:29.071Z,94.00
2018-01-30T21:19:57.443Z,93.80
2018-01-30T21:22:25.004Z,93.80
2018-01-30T21:24:52.988Z,93.90
2018-01-30T21:27:20.557Z,94.10
2018-01-30T21:29:48.136Z,94.00
2018-01-30T21:32:16.038Z,94.00
2018-01-30T21:34:43.600Z,94.20
2018-01-30T21:37:11.135Z,94.20
2018-01-30T21:39:38.827Z,93.40
2018-01-30T21:42:07.127Z,94.20
2018-01-30T21:44:35.511Z,93.40
2018-01-30T21:47:03.847Z,93.80
2018-01-30T21:49:31.318Z,93.80
2018-01-30T21:51:59.696Z,93.40
2018-01-30T21:54:28.051Z,93.40
2018-01-30T21:56:55.560Z,93.50
2018-01-30T21:59:23.126Z,94.10
2018-01-30T22:01:50.708Z,94.10
2018-01-30T22:04:18.293Z,93.90
2018-01-30T22:06:45.858Z,93.90
2018-01-30T22:09:14.283Z,94.20
2018-01-30T22:11:41.844Z,94.20
2018-01-30T22:14:09.408Z,94.10
2018-01-30T22:16:36.967Z,94.00
2018-01-30T22:19:04.497Z,94.50
2018-01-30T22:21:32.073Z,94.00
2018-01-30T22:24:00.029Z,94.00
2018-01-30T22:26:27.565Z,94.00
2018-01-30T22:28:55.032Z,93.70
2018-01-30T22:31:23.477Z,94.10
2018-01-30T22:33:51.808Z,93.40
2018-01-30T22:36:19.350Z,93.30
2018-01-30T22:38:47.223Z,92.80
2018-01-30T22:41:15.526Z,93.00
2018-01-30T22:43:43.099Z,93.00
2018-01-30T22:46:10.692Z,92.70
